createdAt,value
2019-01-20T00:01:59.082Z,0.10
2019-01-20T00:04:31.462Z,0.10
2019-01-20T00:07:02.643Z,0.10
2019-01-20T00:09:33.923Z,0.10
2019-01-20T00:12:05.403Z,0.10
2019-01-20T00:14:38.051Z,0.10
2019-01-20T00:17:09.688Z,0.10
2019-01-20T00:19:41.072Z,0.20
2019-01-20T00:22:12.451Z,0.20
2019-01-20T00:24:43.833Z,0.20
2019-01-20T00:27:14.963Z,0.20
2019-01-20T00:29:46.105Z,0.20
2019-01-20T00:32:17.168Z,0.20
2019-01-20T00:34:48.100Z,0.20
2019-01-20T00:37:20.423Z,0.20
2019-01-20T00:39:55.695Z,0.20
2019-01-20T00:42:29.365Z,0.20
2019-01-20T00:45:02.857Z,0.20
2019-01-20T00:47:36.599Z,0.30
2019-01-20T00:50:09.748Z,0.20
2019-01-20T00:52:41.061Z,0.20
2019-01-20T00:55:14.626Z,0.20
2019-01-20T00:57:46.001Z,0.30
2019-01-20T01:00:24.244Z,0.30
2019-01-20T01:02:55.368Z,0.30
2019-01-20T01:05:27.145Z,0.30
2019-01-20T01:07:58.438Z,0.30
2019-01-20T01:10:32.845Z,0.30
2019-01-20T01:13:05.438Z,0.30
2019-01-20T01:15:39.099Z,0.30
2019-01-20T01:18:10.717Z,0.40
2019-01-20T01:20:41.961Z,0.40
2019-01-20T01:23:26.976Z,0.30
2019-01-20T01:26:31.903Z,0.30
2019-01-20T01:29:03.370Z,0.40
2019-01-20T01:31:34.804Z,0.30
2019-01-20T01:34:06.163Z,0.40
2019-01-20T01:36:37.323Z,0.40
2019-01-20T01:39:13.097Z,0.40
2019-01-20T01:41:44.470Z,0.40
2019-01-20T01:44:15.581Z,0.30
2019-01-20T01:46:46.951Z,0.40
2019-01-20T01:49:20.435Z,0.30
2019-01-20T01:51:51.555Z,0.30
2019-01-20T01:54:22.854Z,0.30
2019-01-20T01:56:53.957Z,0.40
2019-01-20T01:59:28.219Z,0.30
2019-01-20T02:01:59.582Z,0.30
2019-01-20T02:04:35.443Z,0.30
2019-01-20T02:07:09.893Z,0.30
2019-01-20T02:09:51.710Z,0.30
2019-01-20T02:12:24.911Z,0.30
2019-01-20T02:14:59.306Z,0.30
2019-01-20T02:17:46.296Z,0.30
2019-01-20T02:20:24.192Z,0.30
2019-01-20T02:23:14.850Z,0.30
2019-01-20T02:25:32.393Z,0.20
2019-01-20T02:28:04.871Z,0.30
2019-01-20T02:30:36.063Z,0.20
2019-01-20T02:35:45.325Z,0.10
2019-01-20T02:38:18.224Z,0.10
2019-01-20T02:40:49.391Z,0.10
2019-01-20T02:43:23.515Z,0.10
2019-01-20T02:46:00.732Z,0.10
2019-01-20T02:48:32.355Z,0.00
2019-01-20T02:51:11.147Z,0.00
2019-01-20T02:53:43.891Z,0.00
2019-01-20T02:56:17.016Z,0.00
2019-01-20T02:58:55.193Z,-0.10
2019-01-20T03:01:39.918Z,-0.10
2019-01-20T03:04:16.227Z,-0.10
2019-01-20T03:06:48.751Z,-0.20
2019-01-20T03:09:48.237Z,-0.20
2019-01-20T03:12:25.304Z,-0.30
2019-01-20T03:14:58.512Z,-0.30
2019-01-20T03:17:29.648Z,-0.40
2019-01-20T03:20:14.698Z,-0.40
2019-01-20T03:22:54.158Z,-0.40
2019-01-20T03:25:40.016Z,-0.50
2019-01-20T03:28:32.866Z,-0.50
2019-01-20T03:31:33.941Z,-0.60
2019-01-20T03:34:48.162Z,-0.60
2019-01-20T03:37:44.674Z,-0.60
2019-01-20T03:40:17.567Z,-0.70
2019-01-20T03:43:14.246Z,-0.70
2019-01-20T03:45:50.358Z,-0.70
2019-01-20T03:48:25.463Z,-0.80
2019-01-20T03:50:57.911Z,-0.70
2019-01-20T03:53:37.135Z,-0.80
2019-01-20T03:56:08.576Z,-0.80
2019-01-20T03:59:05.581Z,-0.80
2019-01-20T04:01:41.166Z,-0.80
2019-01-20T04:04:22.002Z,-0.70
2019-01-20T04:06:56.072Z,-0.80
2019-01-20T04:09:27.642Z,-0.80
2019-01-20T04:12:03.770Z,-0.80
2019-01-20T04:14:36.982Z,-0.80
2019-01-20T04:17:13.069Z,-0.90
2019-01-20T04:19:41.516Z,-1.00
2019-01-20T04:22:12.973Z,-1.00
2019-01-20T04:24:44.078Z,-1.00
2019-01-20T04:27:15.280Z,-1.10
2019-01-20T04:30:04.712Z,-1.10
2019-01-20T04:32:37.166Z,-1.10
2019-01-20T04:43:11.693Z,-1.20
2019-01-20T04:45:53.651Z,-1.20
2019-01-20T04:48:26.382Z,-1.30
2019-01-20T04:50:59.231Z,-1.30
2019-01-20T04:53:32.158Z,-1.30
2019-01-20T04:56:18.785Z,-1.30
2019-01-20T04:58:50.223Z,-1.40
2019-01-20T05:08:54.272Z,-1.50
2019-01-20T05:11:25.391Z,-1.50
2019-01-20T05:13:56.556Z,-1.50
2019-01-20T05:16:56.404Z,-1.50
2019-01-20T05:19:29.793Z,-1.50
2019-01-20T05:22:35.666Z,-1.50
2019-01-20T05:25:07.228Z,-1.60
2019-01-20T05:27:38.698Z,-1.60
2019-01-20T05:34:05.548Z,-1.70
2019-01-20T05:40:24.837Z,-1.60
2019-01-20T05:50:31.618Z,-1.60
2019-01-20T06:09:48.547Z,-1.40
2019-01-20T06:13:18.963Z,-1.50
2019-01-20T06:16:37.674Z,-1.40
2019-01-20T06:22:02.356Z,-1.40
2019-01-20T06:24:33.702Z,-1.30
2019-01-20T06:27:32.474Z,-1.30
2019-01-20T06:36:21.177Z,-1.20
2019-01-20T06:39:28.913Z,-1.20
2019-01-20T06:43:12.793Z,-1.20
2019-01-20T06:46:01.529Z,-1.20
2019-01-20T06:57:30.028Z,-1.40
2019-01-20T07:02:47.382Z,-1.40
2019-01-20T07:11:06.293Z,-1.40
2019-01-20T07:26:03.151Z,-1.30
2019-01-20T07:34:56.313Z,-1.30
2019-01-20T07:37:34.199Z,-1.30
2019-01-20T07:40:07.774Z,-1.20
2019-01-20T07:47:52.727Z,-1.00
2019-01-20T07:50:32.681Z,-1.00
2019-01-20T07:53:04.109Z,-0.90
2019-01-20T07:55:35.394Z,-0.80
2019-01-20T07:58:06.857Z,-0.70
2019-01-20T08:00:45.868Z,-0.60
2019-01-20T08:03:18.597Z,-0.60
2019-01-20T08:08:21.648Z,-0.50
2019-01-20T08:10:53.099Z,-0.30
2019-01-20T08:13:24.653Z,-0.10
2019-01-20T08:16:23.898Z,0.10
2019-01-20T08:19:10.258Z,0.30
2019-01-20T08:21:41.557Z,0.40
2019-01-20T08:24:24.812Z,0.40
2019-01-20T08:27:05.291Z,0.50
2019-01-20T08:29:36.720Z,0.50
2019-01-20T08:32:10.664Z,0.60
2019-01-20T08:34:41.687Z,0.80
2019-01-20T08:37:12.764Z,0.90
2019-01-20T08:39:43.825Z,1.00
2019-01-20T08:42:15.730Z,1.10
2019-01-20T08:49:01.665Z,1.40
2019-01-20T08:59:51.642Z,2.30
2019-01-20T09:02:23.694Z,2.50
2019-01-20T09:04:54.900Z,2.40
2019-01-20T09:07:26.155Z,2.00
2019-01-20T09:10:40.589Z,1.80
2019-01-20T09:15:50.194Z,2.00
2019-01-20T09:21:45.808Z,2.40
2019-01-20T09:24:26.285Z,2.80
2019-01-20T09:38:49.258Z,2.30
2019-01-20T09:41:41.499Z,2.00
2019-01-20T09:44:12.747Z,1.70
2019-01-20T09:47:05.698Z,1.60
2019-01-20T09:49:41.087Z,1.80
2019-01-20T09:52:13.202Z,2.30
2019-01-20T09:58:25.155Z,3.50
2019-01-20T10:00:59.010Z,4.00
2019-01-20T10:03:34.089Z,4.30
2019-01-20T10:06:43.819Z,4.00
2019-01-20T10:09:25.296Z,3.80
2019-01-20T10:12:10.570Z,4.00
2019-01-20T10:17:50.417Z,4.30
2019-01-20T10:20:24.780Z,3.90
2019-01-20T10:22:56.138Z,3.40
2019-01-20T10:25:29.818Z,2.90
2019-01-20T10:28:21.193Z,2.60
2019-01-20T10:30:55.786Z,2.30
2019-01-20T10:33:29.363Z,2.10
2019-01-20T10:36:06.125Z,2.00
2019-01-20T10:38:37.617Z,2.00
2019-01-20T10:41:10.097Z,2.10
2019-01-20T10:49:07.695Z,2.00
2019-01-20T10:51:38.887Z,1.90
2019-01-20T10:54:11.770Z,1.80
2019-01-20T10:56:44.907Z,1.80
2019-01-20T10:59:17.699Z,1.90
2019-01-20T11:01:49.287Z,1.90
2019-01-20T11:04:20.678Z,1.80
2019-01-20T11:06:51.797Z,1.80
2019-01-20T11:09:22.908Z,1.70
2019-01-20T11:11:53.917Z,2.00
2019-01-20T11:14:24.602Z,2.10
2019-01-20T11:16:58.167Z,2.80
2019-01-20T11:19:30.807Z,3.60
2019-01-20T11:22:02.968Z,4.40
2019-01-20T11:24:33.167Z,4.90
2019-01-20T11:27:05.748Z,5.30
2019-01-20T11:29:38.220Z,5.50
2019-01-20T11:32:14.267Z,5.80
2019-01-20T11:34:46.344Z,6.00
2019-01-20T11:37:17.436Z,6.30
2019-01-20T11:39:48.487Z,6.50
2019-01-20T11:42:19.665Z,6.70
2019-01-20T11:44:51.252Z,6.80
2019-01-20T11:47:25.201Z,6.90
2019-01-20T11:49:56.279Z,6.90
2019-01-20T11:52:29.188Z,7.00
2019-01-20T11:55:00.872Z,7.30
2019-01-20T11:57:32.586Z,7.30
2019-01-20T12:00:04.465Z,6.80
2019-01-20T12:02:36.229Z,5.90
2019-01-20T12:05:09.086Z,5.00
2019-01-20T12:07:39.625Z,4.20
2019-01-20T12:10:11.411Z,3.70
2019-01-20T12:12:43.713Z,3.40
2019-01-20T12:15:15.266Z,3.20
2019-01-20T12:17:46.749Z,3.00
2019-01-20T12:20:18.914Z,2.90
2019-01-20T12:22:50.260Z,2.90
2019-01-20T12:25:21.737Z,2.90
2019-01-20T12:27:53.226Z,2.90
2019-01-20T12:30:26.866Z,2.90
2019-01-20T12:32:58.393Z,2.90
2019-01-20T12:35:29.956Z,3.10
2019-01-20T12:38:01.346Z,2.90
2019-01-20T12:40:35.971Z,2.80
2019-01-20T12:43:07.175Z,2.70
2019-01-20T12:45:38.525Z,2.50
2019-01-20T12:48:10.936Z,2.20
2019-01-20T12:50:42.205Z,2.10
2019-01-20T12:58:32.194Z,1.90
2019-01-20T13:01:03.764Z,1.90
2019-01-20T13:03:35.085Z,1.90
2019-01-20T13:06:07.463Z,1.80
2019-01-20T13:08:39.090Z,1.90
2019-01-20T13:11:11.243Z,2.00
2019-01-20T13:13:42.495Z,2.30
2019-01-20T13:16:14.068Z,3.00
2019-01-20T13:21:16.902Z,3.10
2019-01-20T13:23:48.302Z,2.80
2019-01-20T13:26:20.682Z,2.50
2019-01-20T13:28:53.856Z,2.20
2019-01-20T13:31:25.397Z,2.10
2019-01-20T13:33:56.403Z,2.00
2019-01-20T13:36:27.604Z,1.90
2019-01-20T13:38:59.248Z,1.80
2019-01-20T13:41:34.363Z,1.70
2019-01-20T13:44:08.641Z,1.70
2019-01-20T13:46:39.743Z,1.70
2019-01-20T13:49:11.076Z,1.60
2019-01-20T13:51:42.146Z,1.60
2019-01-20T13:54:13.243Z,1.70
2019-01-20T13:56:44.384Z,1.70
2019-01-20T13:59:15.569Z,1.70
2019-01-20T14:01:46.571Z,1.70
2019-01-20T14:04:17.791Z,1.70
2019-01-20T14:06:49.045Z,1.70
2019-01-20T14:09:21.199Z,1.70
2019-01-20T14:11:52.266Z,1.60
2019-01-20T14:14:23.324Z,1.60
2019-01-20T14:16:54.341Z,1.60
2019-01-20T14:19:28.455Z,1.60
2019-01-20T14:21:59.730Z,1.50
2019-01-20T14:24:31.958Z,1.50
2019-01-20T14:27:01.788Z,1.50
2019-01-20T14:29:33.049Z,1.40
2019-01-20T14:32:04.210Z,1.40
2019-01-20T14:34:35.361Z,1.30
2019-01-20T14:37:08.085Z,1.30
2019-01-20T14:39:39.195Z,1.30
2019-01-20T14:42:10.283Z,1.30
2019-01-20T14:44:41.499Z,1.30
2019-01-20T14:47:12.705Z,1.20
2019-01-20T14:49:43.816Z,1.20
2019-01-20T14:52:14.873Z,1.20
2019-01-20T14:54:47.090Z,1.10
2019-01-20T14:57:18.533Z,1.10
2019-01-20T14:59:51.912Z,1.10
2019-01-20T15:02:24.945Z,1.10
2019-01-20T15:04:58.151Z,1.00
2019-01-20T15:07:32.283Z,1.00
2019-01-20T15:10:03.919Z,1.00
2019-01-20T15:12:37.223Z,0.90
2019-01-20T15:15:11.561Z,0.90
2019-01-20T15:17:42.656Z,0.90
2019-01-20T15:20:13.889Z,0.90
2019-01-20T15:22:44.967Z,0.90
2019-01-20T15:25:16.656Z,0.90
2019-01-20T15:27:47.678Z,0.90
2019-01-20T15:30:27.533Z,0.90
2019-01-20T15:32:59.994Z,0.90
2019-01-20T15:35:31.099Z,0.90
2019-01-20T15:38:02.350Z,0.90
2019-01-20T15:40:33.584Z,0.90
2019-01-20T15:43:07.144Z,0.90
2019-01-20T15:45:39.401Z,0.90
2019-01-20T15:48:10.788Z,0.90
2019-01-20T15:50:41.824Z,0.90
2019-01-20T15:53:09.724Z,0.90
2019-01-20T15:55:41.022Z,0.90
2019-01-20T15:58:12.176Z,0.90
2019-01-20T16:00:43.682Z,0.90
2019-01-20T16:03:14.709Z,0.90
2019-01-20T16:05:45.838Z,1.00
2019-01-20T16:08:16.959Z,1.00
2019-01-20T16:10:52.512Z,1.00
2019-01-20T16:13:24.013Z,1.00
2019-01-20T16:15:55.361Z,1.00
2019-01-20T16:18:26.469Z,1.00
2019-01-20T16:20:57.880Z,1.00
2019-01-20T16:23:31.100Z,1.00
2019-01-20T16:26:07.781Z,1.00
2019-01-20T16:28:38.743Z,1.00
2019-01-20T16:31:09.881Z,1.10
2019-01-20T16:33:41.091Z,1.10
2019-01-20T16:36:12.300Z,1.10
2019-01-20T16:38:43.589Z,1.10
2019-01-20T16:41:14.940Z,1.20
2019-01-20T16:43:46.061Z,1.20
2019-01-20T16:46:17.344Z,1.20
2019-01-20T16:48:48.532Z,1.30
2019-01-20T16:51:19.994Z,1.30
2019-01-20T16:53:51.291Z,1.30
2019-01-20T16:56:22.772Z,1.30
2019-01-20T16:58:57.538Z,1.20
2019-01-20T17:01:28.691Z,1.20
2019-01-20T17:03:59.901Z,1.10
2019-01-20T17:06:30.986Z,1.10
2019-01-20T17:09:02.043Z,1.20
2019-01-20T17:11:34.650Z,1.20
2019-01-20T17:14:06.572Z,1.20
2019-01-20T17:16:37.624Z,1.20
2019-01-20T17:19:08.741Z,1.20
2019-01-20T17:21:39.883Z,1.10
2019-01-20T17:24:12.982Z,1.10
2019-01-20T17:26:44.914Z,1.10
2019-01-20T17:29:16.028Z,1.10
2019-01-20T17:31:47.233Z,1.10
2019-01-20T17:34:19.853Z,1.10
2019-01-20T17:37:01.853Z,1.10
2019-01-20T17:39:33.714Z,1.10
2019-01-20T17:42:05.087Z,1.10
2019-01-20T17:44:36.516Z,1.00
2019-01-20T17:47:10.653Z,1.00
2019-01-20T17:49:44.768Z,1.10
2019-01-20T17:52:18.629Z,1.10
2019-01-20T17:55:02.212Z,1.10
2019-01-20T17:57:35.253Z,1.10
2019-01-20T18:00:09.134Z,1.10
2019-01-20T18:02:40.351Z,1.10
2019-01-20T18:05:13.177Z,1.20
2019-01-20T18:07:44.328Z,1.20
2019-01-20T18:10:16.879Z,1.20
2019-01-20T18:12:48.211Z,1.20
2019-01-20T18:15:27.055Z,1.20
2019-01-20T18:18:00.892Z,1.20
2019-01-20T18:20:33.580Z,1.20
2019-01-20T18:23:10.065Z,1.20
2019-01-20T18:25:44.101Z,1.20
2019-01-20T18:28:15.266Z,1.10
2019-01-20T18:30:49.041Z,1.10
2019-01-20T18:33:22.014Z,1.10
2019-01-20T18:35:53.913Z,1.20
2019-01-20T18:38:27.121Z,1.20
2019-01-20T18:40:59.390Z,1.20
2019-01-20T18:43:31.045Z,1.20
2019-01-20T18:46:02.915Z,1.10
2019-01-20T18:48:34.513Z,1.10
2019-01-20T18:51:06.865Z,1.10
2019-01-20T18:53:38.737Z,1.10
2019-01-20T18:56:11.041Z,1.10
2019-01-20T18:58:43.566Z,1.10
2019-01-20T19:01:16.459Z,1.10
2019-01-20T19:03:48.364Z,1.00
2019-01-20T19:06:27.204Z,1.00
2019-01-20T19:09:00.903Z,1.00
2019-01-20T19:11:35.066Z,1.00
2019-01-20T19:14:23.623Z,1.00
2019-01-20T19:16:57.572Z,1.00
2019-01-20T19:19:28.563Z,1.00
2019-01-20T19:21:59.668Z,0.90
2019-01-20T19:24:30.863Z,0.90
2019-01-20T19:27:02.075Z,0.90
2019-01-20T19:29:32.910Z,1.00
2019-01-20T19:32:00.763Z,1.00
2019-01-20T19:34:47.250Z,0.90
2019-01-20T19:37:18.069Z,0.90
2019-01-20T19:39:50.724Z,0.90
2019-01-20T19:42:21.369Z,0.90
2019-01-20T19:44:52.174Z,0.90
2019-01-20T19:47:23.138Z,0.90
2019-01-20T19:49:54.101Z,0.90
2019-01-20T19:52:24.867Z,0.90
2019-01-20T19:54:55.780Z,0.80
2019-01-20T19:57:26.597Z,0.70
2019-01-20T20:00:07.670Z,0.60
2019-01-20T20:02:44.328Z,0.60
2019-01-20T20:05:16.627Z,0.50
2019-01-20T20:08:02.009Z,0.50
2019-01-20T20:10:36.967Z,0.50
2019-01-20T20:13:07.856Z,0.50
2019-01-20T20:15:38.778Z,0.40
2019-01-20T20:18:09.646Z,0.40
2019-01-20T20:20:43.106Z,0.40
2019-01-20T20:23:17.486Z,0.40
2019-01-20T20:25:48.414Z,0.30
2019-01-20T20:28:19.439Z,0.20
2019-01-20T20:30:50.419Z,0.20
2019-01-20T20:33:21.274Z,0.20
2019-01-20T20:35:52.206Z,0.10
2019-01-20T20:38:22.999Z,0.10
2019-01-20T20:40:54.101Z,0.00
2019-01-20T20:43:24.897Z,0.10
2019-01-20T20:45:55.720Z,0.10
2019-01-20T20:48:26.500Z,0.10
2019-01-20T20:50:57.366Z,0.10
2019-01-20T20:53:28.139Z,0.20
2019-01-20T20:55:59.030Z,0.20
2019-01-20T20:58:29.738Z,0.20
2019-01-20T21:01:00.597Z,0.30
2019-01-20T21:03:34.610Z,0.20
2019-01-20T21:06:08.382Z,0.20
2019-01-20T21:08:39.395Z,0.20
2019-01-20T21:11:10.246Z,0.20
2019-01-20T21:13:41.003Z,0.10
2019-01-20T21:16:11.846Z,0.10
2019-01-20T21:18:42.592Z,0.10
2019-01-20T21:21:13.410Z,0.00
2019-01-20T21:23:44.186Z,0.10
2019-01-20T21:26:15.040Z,0.10
2019-01-20T21:28:45.784Z,0.10
2019-01-20T21:31:16.623Z,0.10
2019-01-20T21:33:47.512Z,0.10
2019-01-20T21:36:18.362Z,0.10
2019-01-20T21:38:49.225Z,0.00
2019-01-20T21:41:20.149Z,0.00
2019-01-20T21:43:50.920Z,0.00
2019-01-20T21:46:21.856Z,-0.10
2019-01-20T21:48:52.633Z,-0.10
2019-01-20T21:51:23.590Z,-0.10
2019-01-20T21:53:54.377Z,-0.20
2019-01-20T21:56:25.275Z,-0.20
2019-01-20T21:58:56.014Z,-0.20
2019-01-20T22:01:26.857Z,-0.20
2019-01-20T22:03:57.641Z,-0.10
2019-01-20T22:06:28.477Z,-0.10
2019-01-20T22:08:59.353Z,-0.10
2019-01-20T22:11:30.273Z,-0.20
2019-01-20T22:14:01.161Z,-0.20
2019-01-20T22:16:32.017Z,-0.20
2019-01-20T22:19:02.769Z,-0.30
2019-01-20T22:21:34.547Z,-0.30
2019-01-20T22:24:05.344Z,-0.30
2019-01-20T22:26:36.155Z,-0.30
2019-01-20T22:29:06.928Z,-0.20
2019-01-20T22:31:37.740Z,-0.20
2019-01-20T22:34:08.543Z,-0.10
2019-01-20T22:36:39.360Z,-0.10
2019-01-20T22:39:10.189Z,0.00
2019-01-20T22:41:41.220Z,0.00
2019-01-20T22:44:11.990Z,0.00
2019-01-20T22:46:42.815Z,0.00
2019-01-20T22:49:13.759Z,0.00
2019-01-20T22:51:44.636Z,0.00
2019-01-20T22:54:15.348Z,0.10
2019-01-20T22:56:45.267Z,0.10
2019-01-20T22:59:15.992Z,0.10
2019-01-20T23:01:47.005Z,0.00
2019-01-20T23:04:17.746Z,0.00
2019-01-20T23:06:49.036Z,0.00
2019-01-20T23:09:18.788Z,0.00
2019-01-20T23:11:49.527Z,0.00
2019-01-20T23:14:20.281Z,0.10
2019-01-20T23:16:51.033Z,0.10
2019-01-20T23:19:21.926Z,0.10
2019-01-20T23:21:52.713Z,0.10
2019-01-20T23:24:23.499Z,0.10
2019-01-20T23:26:54.240Z,0.10
2019-01-20T23:29:25.119Z,0.20
2019-01-20T23:31:55.912Z,0.20
2019-01-20T23:34:26.750Z,0.30
2019-01-20T23:36:57.533Z,0.30
2019-01-20T23:39:28.310Z,0.20
2019-01-20T23:41:59.086Z,0.10
2019-01-20T23:44:29.853Z,0.00
2019-01-20T23:47:00.583Z,0.00
2019-01-20T23:49:31.389Z,0.00
2019-01-20T23:52:02.224Z,0.00
2019-01-20T23:54:33.018Z,-0.10
2019-01-20T23:57:03.968Z,-0.20
2019-01-20T23:59:34.835Z,-0.40
